createdAt,value
2017-05-09T00:00:45.190Z,81.75
2017-05-09T00:01:45.761Z,82.04
2017-05-09T00:02:46.332Z,81.85
2017-05-09T00:03:46.903Z,81.98
2017-05-09T00:04:47.475Z,81.51
2017-05-09T00:05:48.043Z,81.51
2017-05-09T00:06:48.614Z,81.79
2017-05-09T00:07:49.184Z,82.04
2017-05-09T00:08:49.755Z,81.94
2017-05-09T00:09:50.325Z,82.23
2017-05-09T00:10:50.895Z,82.79
2017-05-09T00:11:51.466Z,82.89
2017-05-09T00:12:52.035Z,83.36
2017-05-09T00:13:52.605Z,83.36
2017-05-09T00:14:53.175Z,83.36
2017-05-09T00:15:53.744Z,83.94
2017-05-09T00:16:54.314Z,83.55
2017-05-09T00:17:54.915Z,84.22
2017-05-09T00:18:55.468Z,83.94
2017-05-09T00:19:56.039Z,83.65
2017-05-09T00:20:56.612Z,83.74
2017-05-09T00:21:57.180Z,83.65
2017-05-09T00:22:57.751Z,83.46
2017-05-09T00:23:58.336Z,83.17
2017-05-09T00:24:58.905Z,83.74
2017-05-09T00:25:59.479Z,84.22
2017-05-09T00:27:00.048Z,84.03
2017-05-09T00:28:00.620Z,84.59
2017-05-09T00:29:01.189Z,84.50
2017-05-09T00:30:01.759Z,84.50
2017-05-09T00:31:02.328Z,84.50
2017-05-09T00:32:02.899Z,84.69
2017-05-09T00:33:03.470Z,84.12
2017-05-09T00:34:04.038Z,84.69
2017-05-09T00:35:04.610Z,84.59
2017-05-09T00:36:05.193Z,84.88
2017-05-09T00:37:05.777Z,84.69
2017-05-09T00:38:06.346Z,84.88
2017-05-09T00:39:06.917Z,84.88
2017-05-09T00:40:07.488Z,85.13
2017-05-09T00:41:08.058Z,85.22
2017-05-09T00:42:08.629Z,85.93
2017-05-09T00:43:09.198Z,85.83
2017-05-09T00:44:09.769Z,85.74
2017-05-09T00:45:10.353Z,86.26
2017-05-09T00:46:10.923Z,85.74
2017-05-09T00:47:11.494Z,86.02
2017-05-09T00:48:12.063Z,86.21
2017-05-09T00:49:12.635Z,85.60
2017-05-09T00:50:13.204Z,85.22
2017-05-09T00:51:13.775Z,85.41
2017-05-09T00:52:14.345Z,85.69
2017-05-09T00:53:14.915Z,86.45
2017-05-09T00:54:15.483Z,85.64
2017-05-09T00:55:16.054Z,85.88
2017-05-09T00:56:16.623Z,85.97
2017-05-09T00:57:17.192Z,85.45
2017-05-09T00:58:17.762Z,85.36
2017-05-09T00:59:18.331Z,85.22
2017-05-09T01:00:18.900Z,85.41
2017-05-09T01:01:19.470Z,86.07
2017-05-09T01:02:20.040Z,86.45
2017-05-09T01:03:20.609Z,86.64
2017-05-09T01:04:21.178Z,86.74
2017-05-09T01:05:21.748Z,87.12
2017-05-09T01:06:22.319Z,86.93
2017-05-09T01:07:22.890Z,86.93
2017-05-09T01:08:23.461Z,86.93
2017-05-09T01:09:24.032Z,87.21
2017-05-09T01:10:24.603Z,87.30
2017-05-09T01:11:25.173Z,87.21
2017-05-09T01:12:25.745Z,87.40
2017-05-09T01:13:26.315Z,87.49
2017-05-09T01:14:26.884Z,88.06
2017-05-09T01:15:27.454Z,87.87
2017-05-09T01:16:28.027Z,88.16
2017-05-09T01:17:28.597Z,88.54
2017-05-09T01:18:29.181Z,88.16
2017-05-09T01:19:29.752Z,87.77
2017-05-09T01:20:30.323Z,88.16
2017-05-09T01:21:30.907Z,87.97
2017-05-09T01:22:31.476Z,88.25
2017-05-09T01:23:32.045Z,88.06
2017-05-09T01:24:32.621Z,88.63
2017-05-09T01:25:33.186Z,89.29
2017-05-09T01:26:33.755Z,88.63
2017-05-09T01:27:34.337Z,89.39
2017-05-09T01:28:34.907Z,89.01
2017-05-09T01:29:35.480Z,89.01
2017-05-09T01:30:36.046Z,89.48
2017-05-09T01:31:36.628Z,89.67
2017-05-09T01:32:37.199Z,89.39
2017-05-09T01:33:37.771Z,89.58
2017-05-09T01:34:38.341Z,89.58
2017-05-09T01:35:38.922Z,89.67
2017-05-09T01:36:39.493Z,89.67
2017-05-09T01:37:40.069Z,89.67
2017-05-09T01:38:40.634Z,89.29
2017-05-09T01:39:41.205Z,89.48
2017-05-09T01:40:41.774Z,89.39
2017-05-09T01:41:42.345Z,89.20
2017-05-09T01:42:42.914Z,89.67
2017-05-09T01:43:43.484Z,89.67
2017-05-09T01:44:44.053Z,89.67
2017-05-09T01:45:44.622Z,90.20
2017-05-09T01:46:45.190Z,89.58
2017-05-09T01:47:45.759Z,89.44
2017-05-09T01:48:46.329Z,89.91
2017-05-09T01:49:46.898Z,90.20
2017-05-09T01:50:47.468Z,90.39
2017-05-09T01:51:48.037Z,90.10
2017-05-09T01:52:48.604Z,89.91
2017-05-09T01:53:49.174Z,89.72
2017-05-09T01:54:49.746Z,89.63
2017-05-09T01:55:50.310Z,90.01
2017-05-09T01:56:50.879Z,89.91
2017-05-09T01:57:51.448Z,89.63
2017-05-09T01:58:52.017Z,90.20
2017-05-09T01:59:52.587Z,90.01
2017-05-09T02:00:53.159Z,90.86
2017-05-09T02:01:53.729Z,90.86
2017-05-09T02:02:54.311Z,90.39
2017-05-09T02:03:54.880Z,90.10
2017-05-09T02:04:55.450Z,90.15
2017-05-09T02:05:56.019Z,90.10
2017-05-09T02:06:56.589Z,90.48
2017-05-09T02:07:57.160Z,90.67
2017-05-09T02:08:57.732Z,90.67
2017-05-09T02:09:58.304Z,90.77
2017-05-09T02:10:58.872Z,90.77
2017-05-09T02:11:59.456Z,90.95
2017-05-09T02:13:00.026Z,89.72
2017-05-09T02:14:00.596Z,89.72
2017-05-09T02:15:01.166Z,89.67
2017-05-09T02:16:01.771Z,89.72
2017-05-09T02:17:02.306Z,89.91
2017-05-09T02:18:02.875Z,90.01
2017-05-09T02:19:03.459Z,90.10
2017-05-09T02:20:04.030Z,89.91
2017-05-09T02:21:04.606Z,90.29
2017-05-09T02:22:05.171Z,91.05
2017-05-09T02:23:05.742Z,91.14
2017-05-09T02:24:06.310Z,90.95
2017-05-09T02:25:06.879Z,91.14
2017-05-09T02:26:07.447Z,90.95
2017-05-09T02:27:08.016Z,90.01
2017-05-09T02:28:08.584Z,90.01
2017-05-09T02:29:09.153Z,90.58
2017-05-09T02:30:09.722Z,90.95
2017-05-09T02:31:10.291Z,91.43
2017-05-09T02:32:10.860Z,92.00
2017-05-09T02:33:11.431Z,91.62
2017-05-09T02:34:12.001Z,91.14
2017-05-09T02:35:12.578Z,90.58
2017-05-09T02:36:13.141Z,90.39
2017-05-09T02:37:13.712Z,90.95
2017-05-09T02:38:14.281Z,90.77
2017-05-09T02:39:14.852Z,90.86
2017-05-09T02:40:15.420Z,91.52
2017-05-09T02:41:15.988Z,90.95
2017-05-09T02:42:16.559Z,90.39
2017-05-09T02:43:17.130Z,90.10
2017-05-09T02:44:17.697Z,90.48
2017-05-09T02:45:18.269Z,90.48
2017-05-09T02:46:18.837Z,90.39
2017-05-09T02:47:19.407Z,90.10
2017-05-09T02:48:19.991Z,90.29
2017-05-09T02:49:20.559Z,90.77
2017-05-09T02:50:21.127Z,90.77
2017-05-09T02:51:21.696Z,91.62
2017-05-09T02:52:22.279Z,90.95
2017-05-09T02:53:22.848Z,90.67
2017-05-09T02:54:23.416Z,90.48
2017-05-09T02:55:23.986Z,90.48
2017-05-09T02:56:24.555Z,89.91
2017-05-09T02:57:25.125Z,91.14
2017-05-09T02:58:25.694Z,91.05
2017-05-09T02:59:26.276Z,91.24
2017-05-09T03:00:26.848Z,92.28
2017-05-09T03:01:27.417Z,92.85
2017-05-09T03:02:27.985Z,93.18
2017-05-09T03:03:28.554Z,93.94
2017-05-09T03:04:29.122Z,93.23
2017-05-09T03:05:29.691Z,93.32
2017-05-09T03:06:30.260Z,93.04
2017-05-09T03:07:30.842Z,93.61
2017-05-09T03:08:31.411Z,93.04
2017-05-09T03:09:31.982Z,92.19
2017-05-09T03:10:32.552Z,91.14
2017-05-09T03:11:33.121Z,91.62
2017-05-09T03:12:33.689Z,92.28
2017-05-09T03:13:34.259Z,92.47
2017-05-09T03:14:34.830Z,93.23
2017-05-09T03:15:35.415Z,91.81
2017-05-09T03:16:36.003Z,92.00
2017-05-09T03:17:36.581Z,92.00
2017-05-09T03:18:37.151Z,91.90
2017-05-09T03:19:37.721Z,92.47
2017-05-09T03:20:38.292Z,92.19
2017-05-09T03:21:38.861Z,91.71
2017-05-09T03:22:39.433Z,92.57
2017-05-09T03:23:40.001Z,92.57
2017-05-09T03:24:40.570Z,92.76
2017-05-09T03:25:41.139Z,93.13
2017-05-09T03:26:41.713Z,93.32
2017-05-09T03:27:42.280Z,92.66
2017-05-09T03:28:42.849Z,93.42
2017-05-09T03:29:43.417Z,93.04
2017-05-09T03:30:44.001Z,93.04
2017-05-09T03:31:44.570Z,92.47
2017-05-09T03:32:45.151Z,92.57
2017-05-09T03:33:45.721Z,92.66
2017-05-09T03:34:46.293Z,92.85
2017-05-09T03:35:46.860Z,93.42
2017-05-09T03:36:47.429Z,93.23
2017-05-09T03:37:47.999Z,93.51
2017-05-09T03:38:48.569Z,93.37
2017-05-09T03:39:49.136Z,93.75
2017-05-09T03:40:49.705Z,94.51
2017-05-09T03:41:50.274Z,94.42
2017-05-09T03:42:50.844Z,94.32
2017-05-09T03:43:51.415Z,94.32
2017-05-09T03:44:51.989Z,94.42
2017-05-09T03:45:52.556Z,94.42
2017-05-09T03:46:53.125Z,94.89
2017-05-09T03:47:53.699Z,94.04
2017-05-09T03:48:54.269Z,93.94
2017-05-09T03:49:54.841Z,93.04
2017-05-09T03:50:55.411Z,93.46
2017-05-09T03:51:55.994Z,93.84
2017-05-09T03:52:56.565Z,94.51
2017-05-09T03:53:57.135Z,95.45
2017-05-09T03:54:57.705Z,95.74
2017-05-09T03:55:58.273Z,95.36
2017-05-09T03:56:58.842Z,95.26
2017-05-09T03:57:59.417Z,95.26
2017-05-09T03:58:59.985Z,95.36
2017-05-09T04:00:00.556Z,95.26
2017-05-09T04:01:01.125Z,95.26
2017-05-09T04:02:01.696Z,95.83
2017-05-09T04:03:02.267Z,96.21
2017-05-09T04:04:02.834Z,96.31
2017-05-09T04:05:03.418Z,95.93
2017-05-09T04:06:03.987Z,96.31
2017-05-09T04:07:04.558Z,95.83
2017-05-09T04:08:05.126Z,95.83
2017-05-09T04:09:05.695Z,95.26
2017-05-09T04:10:06.266Z,95.26
2017-05-09T04:11:06.847Z,95.26
2017-05-09T04:12:07.417Z,95.45
2017-05-09T04:13:07.985Z,94.93
2017-05-09T04:14:08.556Z,95.45
2017-05-09T04:15:09.126Z,95.55
2017-05-09T04:16:09.696Z,95.83
2017-05-09T04:17:10.269Z,96.31
2017-05-09T04:18:10.842Z,95.98
2017-05-09T04:19:11.427Z,95.50
2017-05-09T04:20:11.999Z,95.50
2017-05-09T04:21:12.584Z,94.84
2017-05-09T04:22:13.155Z,94.18
2017-05-09T04:23:13.739Z,93.80
2017-05-09T04:24:14.312Z,94.27
2017-05-09T04:25:14.882Z,94.93
2017-05-09T04:26:15.456Z,94.56
2017-05-09T04:27:16.041Z,94.65
2017-05-09T04:28:16.612Z,94.56
2017-05-09T04:29:17.182Z,94.56
2017-05-09T04:30:17.752Z,95.12
2017-05-09T04:31:18.338Z,94.84
2017-05-09T04:32:18.909Z,94.65
2017-05-09T04:33:19.479Z,94.65
2017-05-09T04:34:20.050Z,94.37
2017-05-09T04:35:20.621Z,94.18
2017-05-09T04:36:21.194Z,94.65
2017-05-09T04:37:21.779Z,94.65
2017-05-09T04:38:22.352Z,94.37
2017-05-09T04:39:22.922Z,94.56
2017-05-09T04:40:23.492Z,94.84
2017-05-09T04:41:24.063Z,95.31
2017-05-09T04:42:24.649Z,95.60
2017-05-09T04:43:25.220Z,94.84
2017-05-09T04:44:25.789Z,94.74
2017-05-09T04:45:26.361Z,94.56
2017-05-09T04:46:26.936Z,94.56
2017-05-09T04:47:27.506Z,95.22
2017-05-09T04:48:28.081Z,95.12
2017-05-09T04:49:28.653Z,95.03
2017-05-09T04:50:29.227Z,94.37
2017-05-09T04:51:29.801Z,94.46
2017-05-09T04:52:30.373Z,94.27
2017-05-09T04:53:30.951Z,94.65
2017-05-09T04:54:31.519Z,94.56
2017-05-09T04:55:32.103Z,94.37
2017-05-09T04:56:32.675Z,94.65
2017-05-09T04:57:33.248Z,94.46
2017-05-09T04:58:33.820Z,94.27
2017-05-09T04:59:34.391Z,94.37
2017-05-09T05:00:34.962Z,94.56
2017-05-09T05:01:35.548Z,94.65
2017-05-09T05:02:36.119Z,94.32
2017-05-09T05:03:36.705Z,94.13
2017-05-09T05:04:37.276Z,94.51
2017-05-09T05:05:37.848Z,94.60
2017-05-09T05:06:38.421Z,94.60
2017-05-09T05:07:38.992Z,94.13
2017-05-09T05:08:39.566Z,94.13
2017-05-09T05:09:40.139Z,93.37
2017-05-09T05:10:40.725Z,93.08
2017-05-09T05:11:41.296Z,93.37
2017-05-09T05:12:41.882Z,93.46
2017-05-09T05:13:42.453Z,93.37
2017-05-09T05:14:43.024Z,92.23
2017-05-09T05:15:43.600Z,92.09
2017-05-09T05:16:44.173Z,92.04
2017-05-09T05:17:44.746Z,91.66
2017-05-09T05:18:45.317Z,92.52
2017-05-09T05:19:45.890Z,92.23
2017-05-09T05:20:46.466Z,92.52
2017-05-09T05:21:47.052Z,92.14
2017-05-09T05:22:47.626Z,92.42
2017-05-09T05:23:48.212Z,92.90
2017-05-09T05:24:48.786Z,92.52
2017-05-09T05:25:49.358Z,92.99
2017-05-09T05:26:49.931Z,92.38
2017-05-09T05:27:50.506Z,92.90
2017-05-09T05:28:51.077Z,92.18
2017-05-09T05:29:51.652Z,91.71
2017-05-09T05:30:52.226Z,91.71
2017-05-09T05:31:52.800Z,91.99
2017-05-09T05:32:53.376Z,92.38
2017-05-09T05:33:53.947Z,91.52
2017-05-09T05:34:54.520Z,91.61
2017-05-09T05:35:55.095Z,91.71
2017-05-09T05:36:55.669Z,91.24
2017-05-09T05:37:56.242Z,90.57
2017-05-09T05:38:56.815Z,90.57
2017-05-09T05:39:57.391Z,90.67
2017-05-09T05:40:57.964Z,90.67
2017-05-09T05:41:58.538Z,90.48
2017-05-09T05:42:59.108Z,90.76
2017-05-09T05:43:59.681Z,90.67
2017-05-09T05:45:00.255Z,90.00
2017-05-09T05:46:00.828Z,90.10
2017-05-09T05:47:01.400Z,90.19
2017-05-09T05:48:01.974Z,89.95
2017-05-09T05:49:02.546Z,89.67
2017-05-09T05:50:03.127Z,89.20
2017-05-09T05:51:03.706Z,89.20
2017-05-09T05:52:04.281Z,88.91
2017-05-09T05:53:04.853Z,89.39
2017-05-09T05:54:05.428Z,89.20
2017-05-09T05:55:06.000Z,88.34
2017-05-09T05:56:06.573Z,88.15
2017-05-09T05:57:07.148Z,87.87
2017-05-09T05:58:07.719Z,88.06
2017-05-09T05:59:08.294Z,87.77
2017-05-09T06:00:08.869Z,87.39
2017-05-09T06:01:09.441Z,87.49
2017-05-09T06:02:10.015Z,88.15
2017-05-09T06:03:10.590Z,87.49
2017-05-09T06:04:11.161Z,87.49
2017-05-09T06:05:11.735Z,87.96
2017-05-09T06:06:12.323Z,87.77
2017-05-09T06:07:12.895Z,87.39
2017-05-09T06:08:13.480Z,87.58
2017-05-09T06:09:14.053Z,87.39
2017-05-09T06:10:14.626Z,87.43
2017-05-09T06:11:15.201Z,86.68
2017-05-09T06:12:15.774Z,87.05
2017-05-09T06:13:16.348Z,86.11
2017-05-09T06:14:16.936Z,86.11
2017-05-09T06:15:17.510Z,86.30
2017-05-09T06:16:18.083Z,85.72
2017-05-09T06:17:18.658Z,86.20
2017-05-09T06:18:19.231Z,86.20
2017-05-09T06:19:19.805Z,86.11
2017-05-09T06:20:20.377Z,85.82
2017-05-09T06:21:20.952Z,84.78
2017-05-09T06:22:21.527Z,84.97
2017-05-09T06:23:22.101Z,84.44
2017-05-09T06:24:22.675Z,85.01
2017-05-09T06:25:23.247Z,85.35
2017-05-09T06:26:23.822Z,84.97
2017-05-09T06:27:24.398Z,85.25
2017-05-09T06:28:24.972Z,85.35
2017-05-09T06:29:25.544Z,85.53
2017-05-09T06:30:26.117Z,85.39
2017-05-09T06:31:26.692Z,84.91
2017-05-09T06:32:27.267Z,84.16
2017-05-09T06:33:27.840Z,84.06
2017-05-09T06:34:28.413Z,83.87
2017-05-09T06:35:28.986Z,83.59
2017-05-09T06:36:29.561Z,83.68
2017-05-09T06:37:30.149Z,84.16
2017-05-09T06:38:30.724Z,83.68
2017-05-09T06:39:31.298Z,83.49
2017-05-09T06:40:31.872Z,83.68
2017-05-09T06:41:32.445Z,83.20
2017-05-09T06:42:33.019Z,82.64
2017-05-09T06:43:33.595Z,82.77
2017-05-09T06:44:34.169Z,82.39
2017-05-09T06:45:34.743Z,81.35
2017-05-09T06:46:35.317Z,81.63
2017-05-09T06:47:35.894Z,80.49
2017-05-09T06:48:36.468Z,80.30
2017-05-09T06:49:37.044Z,80.87
2017-05-09T06:50:37.617Z,80.02
2017-05-09T06:51:38.206Z,80.30
2017-05-09T06:52:38.793Z,79.58
2017-05-09T06:53:39.366Z,78.16
2017-05-09T06:54:39.943Z,78.44
2017-05-09T06:55:40.516Z,78.06
2017-05-09T06:56:41.091Z,77.97
2017-05-09T06:57:41.666Z,77.30
2017-05-09T06:58:42.240Z,75.87
2017-05-09T06:59:42.814Z,77.01
2017-05-09T07:00:43.388Z,78.06
2017-05-09T07:01:43.964Z,77.62
2017-05-09T07:02:44.541Z,75.15
2017-05-09T07:03:45.113Z,75.21
2017-05-09T07:04:45.697Z,76.01
2017-05-09T07:05:46.275Z,74.48
2017-05-09T07:06:46.849Z,74.96
2017-05-09T07:07:47.437Z,74.58
2017-05-09T07:08:48.013Z,74.20
2017-05-09T07:09:48.588Z,74.01
2017-05-09T07:10:49.167Z,72.96
2017-05-09T07:11:49.740Z,71.44
2017-05-09T07:12:50.315Z,70.30
2017-05-09T07:13:50.889Z,68.07
2017-05-09T07:14:51.463Z,69.25
2017-05-09T07:15:52.038Z,69.35
2017-05-09T07:16:52.615Z,68.30
2017-05-09T07:17:53.190Z,69.06
2017-05-09T07:18:53.767Z,69.88
2017-05-09T07:19:54.342Z,70.20
2017-05-09T07:20:54.917Z,70.10
2017-05-09T07:21:55.493Z,66.24
2017-05-09T07:22:56.069Z,66.11
2017-05-09T07:23:56.661Z,66.68
2017-05-09T07:24:57.236Z,66.05
2017-05-09T07:25:57.812Z,64.15
2017-05-09T07:26:58.388Z,63.96
2017-05-09T07:27:58.968Z,61.64
2017-05-09T07:28:59.541Z,62.02
2017-05-09T07:30:00.115Z,61.96
2017-05-09T07:31:00.689Z,62.15
2017-05-09T07:32:01.273Z,59.86
2017-05-09T07:33:01.843Z,55.87
2017-05-09T07:34:02.433Z,55.29
2017-05-09T07:35:03.007Z,54.15
2017-05-09T07:36:03.584Z,53.11
2017-05-09T07:37:04.158Z,52.41
2017-05-09T07:38:04.733Z,53.49
2017-05-09T07:39:05.324Z,53.58
2017-05-09T07:40:05.902Z,53.36
2017-05-09T07:41:06.477Z,51.58
2017-05-09T07:42:07.055Z,54.06
2017-05-09T07:43:07.630Z,55.01
2017-05-09T07:44:08.208Z,54.63
2017-05-09T07:45:08.786Z,54.27
2017-05-09T07:46:09.363Z,55.35
2017-05-09T07:47:09.939Z,55.35
2017-05-09T07:48:10.519Z,54.18
2017-05-09T07:49:11.096Z,54.94
2017-05-09T07:50:11.675Z,55.35
2017-05-09T07:51:12.251Z,56.59
2017-05-09T07:52:12.827Z,56.78
2017-05-09T07:53:13.406Z,57.16
2017-05-09T07:54:13.985Z,57.23
2017-05-09T07:55:14.564Z,58.47
2017-05-09T07:56:15.144Z,59.42
2017-05-09T07:57:15.720Z,59.77
2017-05-09T07:58:16.299Z,61.61
2017-05-09T07:59:16.877Z,60.94
2017-05-09T08:00:17.454Z,59.61
2017-05-09T08:01:18.032Z,59.51
2017-05-09T08:02:18.610Z,58.75
2017-05-09T08:03:19.203Z,58.94
2017-05-09T08:04:19.781Z,58.65
2017-05-09T08:05:20.360Z,59.51
2017-05-09T08:06:20.936Z,59.23
2017-05-09T08:07:21.514Z,58.69
2017-05-09T08:08:22.094Z,58.97
2017-05-09T08:09:22.674Z,58.62
2017-05-09T08:10:23.249Z,57.73
2017-05-09T08:11:23.829Z,58.43
2017-05-09T08:12:24.405Z,58.72
2017-05-09T08:13:25.001Z,57.73
2017-05-09T08:14:25.561Z,58.33
2017-05-09T08:15:26.139Z,57.19
2017-05-09T08:16:26.721Z,58.40
2017-05-09T08:17:27.295Z,59.26
2017-05-09T08:18:27.885Z,58.87
2017-05-09T08:19:28.465Z,58.62
2017-05-09T08:20:29.040Z,61.57
2017-05-09T08:21:29.619Z,59.28
2017-05-09T08:22:30.198Z,58.50
2017-05-09T08:23:30.776Z,64.62
2017-05-09T08:24:31.367Z,60.61
2017-05-09T08:25:31.943Z,58.01
2017-05-09T08:26:32.536Z,56.20
2017-05-09T08:27:33.113Z,56.13
2017-05-09T08:28:33.692Z,56.60
2017-05-09T08:29:34.271Z,57.56
2017-05-09T08:30:34.850Z,57.46
2017-05-09T08:31:35.429Z,56.60
2017-05-09T08:32:36.009Z,55.08
2017-05-09T08:33:36.590Z,55.62
2017-05-09T08:34:37.164Z,57.18
2017-05-09T08:35:37.746Z,55.15
2017-05-09T08:36:38.324Z,55.34
2017-05-09T08:37:38.904Z,55.60
2017-05-09T08:38:39.483Z,59.00
2017-05-09T08:39:40.062Z,58.43
2017-05-09T08:40:40.642Z,57.57
2017-05-09T08:41:41.219Z,57.28
2017-05-09T08:42:41.799Z,57.22
2017-05-09T08:43:42.378Z,55.12
2017-05-09T08:44:42.957Z,54.55
2017-05-09T08:45:43.537Z,54.74
2017-05-09T08:46:44.115Z,55.02
2017-05-09T08:47:44.693Z,55.12
2017-05-09T08:48:45.273Z,54.90
2017-05-09T08:49:45.875Z,54.43
2017-05-09T08:50:46.441Z,55.16
2017-05-09T08:51:47.019Z,56.49
2017-05-09T08:52:47.599Z,56.59
2017-05-09T08:53:48.179Z,57.26
2017-05-09T08:54:48.758Z,57.38
2017-05-09T08:55:49.342Z,56.87
2017-05-09T08:56:49.928Z,57.98
2017-05-09T08:57:50.507Z,56.81
2017-05-09T08:58:51.086Z,55.76
2017-05-09T08:59:51.664Z,55.95
2017-05-09T09:00:52.244Z,57.03
2017-05-09T09:01:52.823Z,55.21
2017-05-09T09:02:53.402Z,54.48
2017-05-09T09:03:53.984Z,53.41
2017-05-09T09:04:54.563Z,54.26
2017-05-09T09:05:55.143Z,54.36
2017-05-09T09:06:55.723Z,53.09
2017-05-09T09:07:56.302Z,54.36
2017-05-09T09:08:56.897Z,51.97
2017-05-09T09:09:57.489Z,51.02
2017-05-09T09:10:58.069Z,51.50
2017-05-09T09:11:58.650Z,52.57
2017-05-09T09:12:59.229Z,51.71
2017-05-09T09:13:59.807Z,52.09
2017-05-09T09:15:00.390Z,52.95
2017-05-09T09:16:00.984Z,52.52
2017-05-09T09:17:01.564Z,54.17
2017-05-09T09:18:02.144Z,53.59
2017-05-09T09:19:02.723Z,54.17
2017-05-09T09:20:03.305Z,53.69
2017-05-09T09:21:03.884Z,51.12
2017-05-09T09:22:04.464Z,50.71
2017-05-09T09:23:05.044Z,50.54
2017-05-09T09:24:05.624Z,51.52
2017-05-09T09:25:06.205Z,50.45
2017-05-09T09:26:06.785Z,51.31
2017-05-09T09:27:07.367Z,51.04
2017-05-09T09:28:07.945Z,49.26
2017-05-09T09:29:08.527Z,47.92
2017-05-09T09:30:09.108Z,47.06
2017-05-09T09:31:09.686Z,46.89
2017-05-09T09:32:10.279Z,47.37
2017-05-09T09:33:10.859Z,48.13
2017-05-09T09:34:11.441Z,48.61
2017-05-09T09:35:12.023Z,47.99
2017-05-09T09:36:12.602Z,48.66
2017-05-09T09:37:13.197Z,48.66
2017-05-09T09:38:13.778Z,48.37
2017-05-09T09:39:14.358Z,48.88
2017-05-09T09:40:14.938Z,48.39
2017-05-09T09:41:15.521Z,48.71
2017-05-09T09:42:16.101Z,48.39
2017-05-09T09:43:16.684Z,48.88
2017-05-09T09:44:17.264Z,49.26
2017-05-09T09:45:17.844Z,50.28
2017-05-09T09:46:18.425Z,50.78
2017-05-09T09:47:19.003Z,49.95
2017-05-09T09:48:19.582Z,48.68
2017-05-09T09:49:20.164Z,45.42
2017-05-09T09:50:20.743Z,45.03
2017-05-09T09:51:21.336Z,45.99
2017-05-09T09:52:21.917Z,46.68
2017-05-09T09:53:22.497Z,46.18
2017-05-09T09:54:23.079Z,45.87
2017-05-09T09:55:23.659Z,45.97
2017-05-09T09:56:24.241Z,45.32
2017-05-09T09:57:24.819Z,43.33
2017-05-09T09:58:25.401Z,41.88
2017-05-09T09:59:25.980Z,42.84
2017-05-09T10:00:26.565Z,43.20
2017-05-09T10:01:27.140Z,41.98
2017-05-09T10:02:27.719Z,41.91
2017-05-09T10:03:28.298Z,42.00
2017-05-09T10:04:28.879Z,41.14
2017-05-09T10:05:29.458Z,41.24
2017-05-09T10:06:30.038Z,42.74
2017-05-09T10:07:30.617Z,42.08
2017-05-09T10:08:31.197Z,41.98
2017-05-09T10:09:31.778Z,42.74
2017-05-09T10:10:32.357Z,43.32
2017-05-09T10:11:32.935Z,43.89
2017-05-09T10:12:33.552Z,44.73
2017-05-09T10:13:34.095Z,45.58
2017-05-09T10:14:34.677Z,45.32
2017-05-09T10:15:35.256Z,44.10
2017-05-09T10:16:35.837Z,43.05
2017-05-09T10:17:36.418Z,42.00
2017-05-09T10:18:37.000Z,41.74
2017-05-09T10:19:37.580Z,41.18
2017-05-09T10:20:38.162Z,38.41
2017-05-09T10:21:38.752Z,36.10
2017-05-09T10:22:39.337Z,36.48
2017-05-09T10:23:39.917Z,38.41
2017-05-09T10:24:40.500Z,39.39
2017-05-09T10:25:41.079Z,40.15
2017-05-09T10:26:41.661Z,38.79
2017-05-09T10:27:42.242Z,39.20
2017-05-09T10:28:42.821Z,37.85
2017-05-09T10:29:43.404Z,38.12
2017-05-09T10:30:43.984Z,39.67
2017-05-09T10:31:44.565Z,39.39
2017-05-09T10:32:45.144Z,37.76
2017-05-09T10:33:45.726Z,39.15
2017-05-09T10:34:46.305Z,40.88
2017-05-09T10:35:46.886Z,42.00
2017-05-09T10:36:47.466Z,43.03
2017-05-09T10:37:48.046Z,43.70
2017-05-09T10:38:48.630Z,44.08
2017-05-09T10:39:49.209Z,43.39
2017-05-09T10:40:49.793Z,43.10
2017-05-09T10:41:50.370Z,43.01
2017-05-09T10:42:50.950Z,43.79
2017-05-09T10:43:51.529Z,43.98
2017-05-09T10:44:52.109Z,43.60
2017-05-09T10:45:52.689Z,44.58
2017-05-09T10:46:53.270Z,44.10
2017-05-09T10:47:53.851Z,44.87
2017-05-09T10:48:54.429Z,44.87
2017-05-09T10:49:55.022Z,44.87
2017-05-09T10:50:55.602Z,44.77
2017-05-09T10:51:56.183Z,44.96
2017-05-09T10:52:56.762Z,44.96
2017-05-09T10:53:57.341Z,43.32
2017-05-09T10:54:57.922Z,43.22
2017-05-09T10:55:58.504Z,43.15
2017-05-09T10:56:59.084Z,43.24
2017-05-09T10:57:59.663Z,43.26
2017-05-09T10:59:00.250Z,43.29
2017-05-09T11:00:00.842Z,42.64
2017-05-09T11:01:01.424Z,40.92
2017-05-09T11:02:02.003Z,41.47
2017-05-09T11:03:02.585Z,41.11
2017-05-09T11:04:03.167Z,41.01
2017-05-09T11:05:03.747Z,40.84
2017-05-09T11:06:04.331Z,41.03
2017-05-09T11:07:04.911Z,40.25
2017-05-09T11:08:05.490Z,40.13
2017-05-09T11:09:06.074Z,40.42
2017-05-09T11:10:06.654Z,39.54
2017-05-09T11:11:07.247Z,40.30
2017-05-09T11:12:07.841Z,40.88
2017-05-09T11:13:08.422Z,40.30
2017-05-09T11:14:09.015Z,41.14
2017-05-09T11:15:09.594Z,41.24
2017-05-09T11:16:10.174Z,41.06
2017-05-09T11:17:10.754Z,41.81
2017-05-09T11:18:11.336Z,42.48
2017-05-09T11:19:11.917Z,41.98
2017-05-09T11:20:12.496Z,42.77
2017-05-09T11:21:13.075Z,41.69
2017-05-09T11:22:13.658Z,42.29
2017-05-09T11:23:14.254Z,42.57
2017-05-09T11:24:14.834Z,42.00
2017-05-09T11:25:15.414Z,41.52
2017-05-09T11:26:15.996Z,41.91
2017-05-09T11:27:16.576Z,41.45
2017-05-09T11:28:17.157Z,40.88
2017-05-09T11:29:17.737Z,40.95
2017-05-09T11:30:18.318Z,40.78
2017-05-09T11:31:18.899Z,41.06
2017-05-09T11:32:19.479Z,40.69
2017-05-09T11:33:20.062Z,41.24
2017-05-09T11:34:20.643Z,41.45
2017-05-09T11:35:21.243Z,41.14
2017-05-09T11:36:21.820Z,40.66
2017-05-09T11:37:22.414Z,41.81
2017-05-09T11:38:22.993Z,43.05
2017-05-09T11:39:23.574Z,42.46
2017-05-09T11:40:24.153Z,42.96
2017-05-09T11:41:24.733Z,41.79
2017-05-09T11:42:25.326Z,41.81
2017-05-09T11:43:25.914Z,41.24
2017-05-09T11:44:26.502Z,40.78
2017-05-09T11:45:27.083Z,41.55
2017-05-09T11:46:27.667Z,41.18
2017-05-09T11:47:28.246Z,40.23
2017-05-09T11:48:28.828Z,40.99
2017-05-09T11:49:29.410Z,41.09
2017-05-09T11:50:30.004Z,41.35
2017-05-09T11:51:30.584Z,42.24
2017-05-09T11:52:31.164Z,41.56
2017-05-09T11:53:31.745Z,40.23
2017-05-09T11:54:32.323Z,40.01
2017-05-09T11:55:32.904Z,40.88
2017-05-09T11:56:33.483Z,42.02
2017-05-09T11:57:34.064Z,41.91
2017-05-09T11:58:34.644Z,41.91
2017-05-09T11:59:35.224Z,41.05
2017-05-09T12:00:35.820Z,40.97
2017-05-09T12:01:36.399Z,41.16
2017-05-09T12:02:36.979Z,41.35
2017-05-09T12:03:37.558Z,40.78
2017-05-09T12:04:38.152Z,40.28
2017-05-09T12:05:38.734Z,41.33
2017-05-09T12:06:39.315Z,41.93
2017-05-09T12:07:39.895Z,41.16
2017-05-09T12:08:40.493Z,40.86
2017-05-09T12:09:41.070Z,41.14
2017-05-09T12:10:41.649Z,41.81
2017-05-09T12:11:42.228Z,41.91
2017-05-09T12:12:42.808Z,42.00
2017-05-09T12:13:43.390Z,42.38
2017-05-09T12:14:43.969Z,42.29
2017-05-09T12:15:44.554Z,42.19
2017-05-09T12:16:45.130Z,41.88
2017-05-09T12:17:45.711Z,42.08
2017-05-09T12:18:46.289Z,42.67
2017-05-09T12:19:46.868Z,42.97
2017-05-09T12:20:47.450Z,41.71
2017-05-09T12:21:48.029Z,42.86
2017-05-09T12:22:48.622Z,42.55
2017-05-09T12:23:49.204Z,43.22
2017-05-09T12:24:49.783Z,43.05
2017-05-09T12:25:50.365Z,43.05
2017-05-09T12:26:50.947Z,42.96
2017-05-09T12:27:51.527Z,43.24
2017-05-09T12:28:52.109Z,42.08
2017-05-09T12:29:52.692Z,42.57
2017-05-09T12:30:53.272Z,42.86
2017-05-09T12:31:53.852Z,43.13
2017-05-09T12:32:54.435Z,43.51
2017-05-09T12:33:55.013Z,43.98
2017-05-09T12:34:55.594Z,43.33
2017-05-09T12:35:56.177Z,42.86
2017-05-09T12:36:56.757Z,43.33
2017-05-09T12:37:57.350Z,42.96
2017-05-09T12:38:57.944Z,42.57
2017-05-09T12:39:58.523Z,42.48
2017-05-09T12:40:59.107Z,42.38
2017-05-09T12:41:59.687Z,42.21
2017-05-09T12:43:00.282Z,42.69
2017-05-09T12:44:00.862Z,42.48
2017-05-09T12:45:01.445Z,42.96
2017-05-09T12:46:02.026Z,42.67
2017-05-09T12:47:02.605Z,41.88
2017-05-09T12:48:03.196Z,41.71
2017-05-09T12:49:03.779Z,41.91
2017-05-09T12:50:04.358Z,42.10
2017-05-09T12:51:04.940Z,41.98
2017-05-09T12:52:05.519Z,42.10
2017-05-09T12:53:06.099Z,42.00
2017-05-09T12:54:06.682Z,42.00
2017-05-09T12:55:07.260Z,42.00
2017-05-09T12:56:07.840Z,42.08
2017-05-09T12:57:08.433Z,41.98
2017-05-09T12:58:09.015Z,42.48
2017-05-09T12:59:09.593Z,42.86
2017-05-09T13:00:10.176Z,43.15